Terminal Aerodrome Forecast
Issued by NWS Brownsville, TX

Home | Current Version | Previous Version | Text Only | Print | Product List | Glossary On
Versions: 1 2 3 4 5 6 7 8 9 10 11 12 13 14 15 16
000
FTUS44 KBRO 050303 AAA
TAFBRO
TAF AMD
KBRO 050303Z 0503/0524 14008KT P6SM SCT250
     FM051400 16016G22KT P6SM BKN025
     FM051700 16019G25KT P6SM SCT050=

USA.gov is the U.S. government's official web portal to all federal, state and local government web resources and services.